Time;durP1;ratioP1;P1;durP2;ratioP2;P2;SDS_P1;SDS_P2;PMS_P1;PMS_P2;Temp;Humidity;BMP_temperature;BMP_pressure;BME280_temperature;BME280_humidity;BME280_pressure;Samples;Min_cycle;Max_cycle;Signal;HPM_P1;HPM_P2
2023/05/10 00:01:22;;;;;;;59.38;36.22;;;;;;;9.93;100.00;100673.03;4976796;28;20034;-46
2023/05/10 00:03:47;;;;;;;73.22;38.40;;;;;;;10.19;100.00;100722.19;4994202;28;20045;-46
2023/05/10 00:06:13;;;;;;;80.72;38.30;;;;;;;10.01;100.00;100704.38;4994083;28;20034;-47
2023/05/10 00:08:38;;;;;;;73.40;38.58;;;;;;;10.10;100.00;100725.94;4976533;28;20046;-46
2023/05/10 00:11:03;;;;;;;82.88;40.17;;;;;;;9.97;100.00;100703.59;4993628;28;20038;-46
2023/05/10 00:13:29;;;;;;;93.22;41.75;;;;;;;10.02;100.00;100711.31;4994439;28;20039;-46
2023/05/10 00:15:54;;;;;;;71.68;38.50;;;;;;;10.00;100.00;100718.41;4993995;28;20042;-45
2023/05/10 00:18:20;;;;;;;69.57;39.20;;;;;;;9.65;100.00;100663.47;4993775;28;20282;-46
2023/05/10 00:20:45;;;;;;;73.70;39.35;;;;;;;9.61;100.00;100654.81;4960763;28;20035;-46
2023/05/10 00:23:11;;;;;;;74.72;39.80;;;;;;;9.89;100.00;100708.25;4976694;28;20133;-46
2023/05/10 00:25:37;;;;;;;69.10;38.28;;;;;;;9.56;100.00;100656.72;4976175;28;20466;-45
2023/05/10 00:28:02;;;;;;;75.82;39.53;;;;;;;9.84;100.00;100706.66;4993855;28;20158;-46
2023/05/10 00:30:27;;;;;;;68.68;38.33;;;;;;;9.91;100.00;100723.97;4993577;28;20396;-45
2023/05/10 00:32:53;;;;;;;89.60;41.53;;;;;;;9.83;100.00;100704.94;4975815;28;20085;-46
2023/05/10 00:35:18;;;;;;;75.82;39.55;;;;;;;9.79;100.00;100712.06;4959999;28;20385;-47
2023/05/10 00:37:44;;;;;;;80.78;41.47;;;;;;;9.81;100.00;100715.50;4976466;28;20038;-46
2023/05/10 00:40:09;;;;;;;81.30;43.70;;;;;;;9.80;100.00;100707.66;4993672;28;20034;-43
2023/05/10 00:42:35;;;;;;;89.88;44.65;;;;;;;9.88;100.00;100717.03;4993613;28;20046;-48
2023/05/10 00:45:00;;;;;;;92.07;45.13;;;;;;;9.86;100.00;100713.59;4993818;28;20534;-48
2023/05/10 00:47:26;;;;;;;105.20;46.60;;;;;;;9.56;100.00;100656.72;4993422;28;20401;-46
2023/05/10 00:49:51;;;;;;;85.38;44.28;;;;;;;9.52;100.00;100658.59;4993073;28;20121;-45
2023/05/10 00:52:17;;;;;;;117.68;48.13;;;;;;;9.86;100.00;100716.22;4993179;28;20157;-46
2023/05/10 00:54:42;;;;;;;85.38;43.38;;;;;;;9.92;100.00;100725.69;4993303;28;20229;-50
2023/05/10 00:57:07;;;;;;;128.32;56.70;;;;;;;10.05;100.00;100721.75;4959520;28;20039;-44
2023/05/10 00:59:33;;;;;;;100.50;51.80;;;;;;;10.04;100.00;100715.63;4992692;28;20042;-45
2023/05/10 01:01:58;;;;;;;106.93;54.25;;;;;;;10.20;100.00;100733.59;4975623;28;20049;-44
2023/05/10 01:04:27;;;;;;;135.30;62.53;;;;;;;10.13;100.00;100711.88;4993411;28;20393;-45
2023/05/10 01:06:53;;;;;;;153.25;69.10;;;;;;;10.42;100.00;100730.19;4993135;28;20085;-45
2023/05/10 01:09:19;;;;;;;208.90;79.97;;;;;;;10.56;100.00;100724.47;4992689;28;20057;-46
2023/05/10 01:11:45;;;;;;;173.07;70.03;;;;;;;10.72;100.00;100747.59;4959651;28;20121;-45
2023/05/10 01:14:10;;;;;;;211.18;71.38;;;;;;;10.42;100.00;100679.34;4993005;28;20442;-45
2023/05/10 01:16:40;;;;;;;377.63;78.22;;;;;;;10.80;100.00;100752.56;4992838;28;20454;-44
2023/05/10 01:19:30;;;;;;;332.60;63.45;;;;;;;10.89;100.00;100754.03;4975472;28;20145;-45
2023/05/10 01:22:08;;;;;;;265.50;58.28;;;;;;;10.93;100.00;100759.16;4975421;28;20044;-45
2023/05/10 01:24:36;;;;;;;256.55;52.38;;;;;;;10.92;100.00;100760.06;4992262;28;20030;-46
2023/05/10 01:27:43;;;;;;;197.20;47.78;;;;;;;10.95;100.00;100757.31;4992663;28;20070;-46
2023/05/10 01:30:09;;;;;;;336.48;56.92;;;;;;;10.72;100.00;100704.59;4959346;28;20030;-45
2023/05/10 01:32:51;;;;;;;344.65;55.90;;;;;;;11.08;100.00;100763.00;4992790;28;20466;-45
2023/05/10 01:35:38;;;;;;;220.52;49.38;;;;;;;11.11;100.00;100755.88;4975174;28;20030;-45
2023/05/10 01:38:25;;;;;;;291.83;55.08;;;;;;;10.65;100.00;100682.88;4992845;28;20031;-47
2023/05/10 01:41:09;;;;;;;340.02;55.47;;;;;;;11.19;100.00;100759.09;4975242;28;20031;-46
2023/05/10 01:43:45;;;;;;;266.05;53.17;;;;;;;11.12;100.00;100748.84;4992468;28;20034;-49
2023/05/10 01:46:16;;;;;;;183.23;49.60;;;;;;;10.74;100.00;100685.19;4992681;28;20037;-48
2023/05/10 01:48:47;;;;;;;212.80;52.00;;;;;;;11.01;100.00;100728.13;4959277;28;20054;-50
2023/05/10 01:51:20;;;;;;;236.27;57.55;;;;;;;10.94;100.00;100705.56;4992884;28;20226;-47
2023/05/10 01:53:47;;;;;;;196.77;53.15;;;;;;;11.13;100.00;100732.09;4975165;28;20038;-46
2023/05/10 01:56:14;;;;;;;184.50;53.08;;;;;;;11.39;100.00;100768.88;4975083;28;20080;-45
2023/05/10 01:58:40;;;;;;;201.88;53.53;;;;;;;11.35;100.00;100767.31;4975189;28;20030;-45
2023/05/10 02:01:06;;;;;;;151.15;48.45;;;;;;;11.16;100.00;100718.81;4975212;28;20117;-48
2023/05/10 02:03:32;;;;;;;171.73;53.83;;;;;;;11.52;100.00;100787.75;4992703;28;20121;-49
2023/05/10 02:05:57;;;;;;;169.23;53.05;;;;;;;11.22;100.00;100750.19;4975115;28;20436;-48
2023/05/10 02:08:23;;;;;;;173.93;54.30;;;;;;;11.10;100.00;100714.63;4992331;28;20026;-45
2023/05/10 02:10:51;;;;;;;166.30;53.35;;;;;;;11.14;100.00;100718.00;4974463;28;20058;-45
2023/05/10 02:13:17;;;;;;;165.52;54.03;;;;;;;11.47;100.00;100777.38;4975183;28;20553;-45
2023/05/10 02:15:47;;;;;;;159.55;55.28;;;;;;;11.18;100.00;100730.13;4974862;28;20034;-47
2023/05/10 02:18:13;;;;;;;136.30;51.03;;;;;;;11.42;100.00;100758.22;4975330;28;20030;-49
2023/05/10 02:20:39;;;;;;;138.00;48.60;;;;;;;11.27;100.00;100733.31;4958946;28;20030;-47
2023/05/10 02:23:04;;;;;;;144.25;52.38;;;;;;;11.57;100.00;100776.13;4992291;28;20039;-52
2023/05/10 02:25:31;;;;;;;148.48;55.97;;;;;;;11.51;100.00;100762.31;4992187;28;20537;-45
2023/05/10 02:27:57;;;;;;;152.25;54.60;;;;;;;11.32;100.00;100730.53;4974826;28;20054;-46
2023/05/10 02:30:23;;;;;;;164.85;55.28;;;;;;;11.61;100.00;100788.28;4975005;28;20589;-46
2023/05/10 02:32:49;;;;;;;155.20;55.55;;;;;;;11.34;100.00;100728.69;4975190;28;20092;-45
2023/05/10 02:35:15;;;;;;;141.45;53.00;;;;;;;11.67;100.00;100780.16;4994725;28;20066;-47
2023/05/10 02:37:41;;;;;;;137.50;55.78;;;;;;;11.34;100.00;100720.78;4978349;28;20089;-45
2023/05/10 02:40:07;;;;;;;139.68;54.53;;;;;;;11.64;100.00;100772.34;4995503;28;20030;-49
2023/05/10 02:42:36;;;;;;;127.93;52.92;;;;;;;11.70;100.00;100789.75;4978513;28;20034;-48
2023/05/10 02:45:05;;;;;;;146.00;59.85;;;;;;;11.59;100.00;100765.50;4978530;28;20034;-46
2023/05/10 02:47:31;;;;;;;147.25;59.85;;;;;;;11.76;100.00;100794.78;4978352;28;20034;-47
2023/05/10 02:49:56;;;;;;;132.73;56.53;;;;;;;11.81;100.00;100792.84;4995933;28;20041;-50
2023/05/10 02:52:26;;;;;;;131.48;57.90;;;;;;;11.46;100.00;100741.41;4995647;28;20573;-48
2023/05/10 02:54:55;;;;;;;112.55;53.03;;;;;;;11.65;100.00;100774.06;4978096;28;20045;-47
2023/05/10 02:57:26;;;;;;;142.35;63.50;;;;;;;11.70;100.00;100782.66;4977996;28;20113;-46
2023/05/10 02:59:51;;;;;;;144.70;67.00;;;;;;;11.43;100.00;100744.16;4995587;28;20031;-47
2023/05/10 03:02:16;;;;;;;144.30;72.38;;;;;;;11.76;100.00;100790.34;4977874;28;20501;-46
2023/05/10 03:04:42;;;;;;;129.70;68.55;;;;;;;11.80;100.00;100785.81;4995187;28;20485;-48
2023/05/10 03:07:07;;;;;;;132.57;66.65;;;;;;;11.25;100.00;100702.66;4995136;28;20475;-46
2023/05/10 03:09:33;;;;;;;135.05;70.57;;;;;;;11.34;100.00;100719.91;4977865;28;20437;-47
2023/05/10 03:12:12;;;;;;;139.15;72.00;;;;;;;11.80;100.00;100805.16;4977984;28;20034;-53
2023/05/10 03:14:45;;;;;;;126.22;65.68;;;;;;;11.74;100.00;100791.34;4995165;28;20045;-45
2023/05/10 03:17:22;;;;;;;139.40;70.43;;;;;;;11.58;100.00;100766.44;4995239;28;20038;-47
2023/05/10 03:19:51;;;;;;;127.97;69.18;;;;;;;11.48;100.00;100736.06;4977309;28;20419;-48
2023/05/10 03:22:24;;;;;;;144.98;78.50;;;;;;;11.81;100.00;100795.47;4994865;28;20034;-46
2023/05/10 03:24:49;;;;;;;155.30;81.13;;;;;;;11.81;100.00;100784.91;4977737;28;20478;-48
2023/05/10 03:27:15;;;;;;;148.98;80.57;;;;;;;11.66;100.00;100773.16;4977820;28;20121;-48
2023/05/10 03:29:41;;;;;;;170.15;84.03;;;;;;;11.50;100.00;100745.63;4977625;28;20053;-48
2023/05/10 03:32:06;;;;;;;140.02;76.78;;;;;;;11.48;100.00;100743.97;4994474;28;20053;-50
2023/05/10 03:34:32;;;;;;;165.20;84.47;;;;;;;11.78;100.00;100799.09;4961433;28;20471;-49
2023/05/10 03:36:57;;;;;;;159.00;88.05;;;;;;;11.39;100.00;100734.63;4994884;28;20080;-46
2023/05/10 03:39:22;;;;;;;157.15;85.40;;;;;;;11.43;100.00;100741.50;4994731;28;20499;-46
2023/05/10 03:41:48;;;;;;;136.15;80.00;;;;;;;11.53;100.00;100763.13;4977203;28;20038;-48
2023/05/10 03:44:13;;;;;;;148.75;85.30;;;;;;;11.79;100.00;100813.13;4994709;28;20121;-47
2023/05/10 03:46:38;;;;;;;146.35;81.93;;;;;;;11.79;100.00;100807.88;4993652;28;20096;-49
2023/05/10 03:49:04;;;;;;;161.60;88.93;;;;;;;11.69;100.00;100811.72;4976968;28;20452;-47
2023/05/10 03:51:30;;;;;;;178.45;99.22;;;;;;;11.65;100.00;100808.31;4994349;28;20465;-50
2023/05/10 03:53:56;;;;;;;173.93;97.97;;;;;;;11.57;100.00;100796.34;4994699;28;20042;-47
2023/05/10 03:56:21;;;;;;;158.23;90.10;;;;;;;11.25;100.00;100743.06;4994439;28;20113;-47
2023/05/10 03:58:47;;;;;;;166.98;93.80;;;;;;;11.55;100.00;100809.59;4994307;28;20394;-50
2023/05/10 04:01:12;;;;;;;139.25;90.63;;;;;;;11.46;100.00;100798.53;4977047;28;20045;-48
2023/05/10 04:03:38;;;;;;;142.02;88.10;;;;;;;11.48;100.00;100809.88;4994211;28;20034;-50
2023/05/10 04:06:03;;;;;;;140.57;89.93;;;;;;;11.48;100.00;100804.59;4976929;28;20481;-49
2023/05/10 04:08:29;;;;;;;145.63;90.93;;;;;;;11.19;100.00;100764.34;4976267;28;20117;-45
2023/05/10 04:10:54;;;;;;;150.27;89.85;;;;;;;11.18;100.00;100751.22;4994184;28;20036;-50
2023/05/10 04:13:19;;;;;;;135.90;87.57;;;;;;;11.57;100.00;100820.94;4994055;28;20488;-46
2023/05/10 04:15:45;;;;;;;146.95;85.25;;;;;;;11.57;100.00;100820.94;4994040;28;20031;-51
2023/05/10 04:18:10;;;;;;;134.70;83.47;;;;;;;11.24;100.00;100774.72;4993780;28;20042;-47
2023/05/10 04:20:35;;;;;;;130.27;74.43;;;;;;;11.44;100.00;100808.28;4994182;28;20043;-47
2023/05/10 04:23:01;;;;;;;131.90;68.60;;;;;;;11.17;100.00;100782.00;4993807;28;20038;-51
2023/05/10 04:25:26;;;;;;;147.95;68.15;;;;;;;11.46;100.00;100845.97;4993801;28;20057;-48
2023/05/10 04:27:51;;;;;;;147.25;51.30;;;;;;;11.38;100.00;100829.56;4993724;28;20119;-48
2023/05/10 04:30:17;;;;;;;201.77;58.10;;;;;;;11.00;100.00;100770.34;4993585;28;20030;-49
2023/05/10 04:32:42;;;;;;;171.90;46.33;;;;;;;11.35;100.00;100830.56;4993424;28;20034;-48
2023/05/10 04:35:09;;;;;;;164.73;41.80;;;;;;;11.02;100.00;100774.63;4993724;28;20042;-49
2023/05/10 04:37:35;;;;;;;189.85;44.63;;;;;;;11.38;100.00;100829.56;4993832;28;20505;-48
2023/05/10 04:40:01;;;;;;;166.45;37.85;;;;;;;11.41;100.00;100842.66;4960359;28;20030;-45
2023/05/10 04:42:26;;;;;;;184.30;36.30;;;;;;;11.27;100.00;100819.41;4993695;28;20522;-47
2023/05/10 04:44:52;;;;;;;184.73;37.17;;;;;;;11.41;100.00;100858.47;4993668;28;20609;-47
2023/05/10 04:47:17;;;;;;;128.32;35.20;;;;;;;11.14;100.00;100813.72;4993210;28;20446;-48
2023/05/10 04:49:42;;;;;;;130.75;36.53;;;;;;;11.05;100.00;100785.06;4993477;28;20117;-47
2023/05/10 04:52:08;;;;;;;110.68;35.38;;;;;;;11.28;100.00;100842.22;4976140;28;20047;-46
2023/05/10 04:54:34;;;;;;;102.65;37.08;;;;;;;11.35;100.00;100834.97;4993269;28;20034;-51
2023/05/10 04:56:59;;;;;;;117.68;43.25;;;;;;;11.39;100.00;100837.41;4993426;28;20046;-52
2023/05/10 04:59:25;;;;;;;113.07;42.58;;;;;;;11.15;100.00;100794.34;4993175;28;20085;-48
2023/05/10 05:01:50;;;;;;;114.38;43.47;;;;;;;11.46;100.00;100849.47;4993043;28;20038;-51
2023/05/10 05:04:15;;;;;;;114.95;45.10;;;;;;;11.17;100.00;100803.06;4976055;28;20398;-50
2023/05/10 05:06:41;;;;;;;124.53;47.00;;;;;;;11.17;100.00;100799.56;4993382;28;20482;-47
2023/05/10 05:09:06;;;;;;;119.65;46.50;;;;;;;11.53;100.00;100855.38;4993200;28;20054;-46
2023/05/10 05:11:31;;;;;;;101.25;45.42;;;;;;;11.54;100.00;100859.72;4993045;28;20049;-47
2023/05/10 05:13:58;;;;;;;94.15;43.38;;;;;;;11.54;100.00;100865.00;4992979;28;20034;-50
2023/05/10 05:16:24;;;;;;;99.32;46.38;;;;;;;11.53;100.00;100869.41;4992877;28;20076;-50
2023/05/10 05:18:49;;;;;;;100.72;39.83;;;;;;;11.60;100.00;100870.91;4993213;28;20042;-50
2023/05/10 05:21:19;;;;;;;92.32;35.15;;;;;;;11.19;100.00;100816.19;4993385;28;20034;-49
2023/05/10 05:23:45;;;;;;;98.18;32.03;;;;;;;11.08;100.00;100813.06;4993106;28;20038;-49
2023/05/10 05:26:10;;;;;;;89.00;32.10;;;;;;;11.17;100.00;100813.63;4975674;28;20045;-47
2023/05/10 05:28:37;;;;;;;82.45;29.23;;;;;;;11.52;100.00;100872.97;4975663;28;20040;-46
2023/05/10 05:31:07;;;;;;;58.53;26.85;;;;;;;11.58;100.00;100877.16;4992706;28;20154;-45
2023/05/10 05:33:32;;;;;;;65.32;28.05;;;;;;;11.25;100.00;100811.56;4993302;28;20057;-50
2023/05/10 05:36:00;;;;;;;58.60;25.23;;;;;;;11.38;100.00;100825.16;4975783;28;20478;-45
2023/05/10 05:38:26;;;;;;;59.42;23.35;;;;;;;11.68;100.00;100883.81;4992760;28;20548;-46
2023/05/10 05:40:51;;;;;;;48.88;23.20;;;;;;;11.66;100.00;100883.03;4992803;28;20038;-49
2023/05/10 05:43:16;;;;;;;46.13;22.88;;;;;;;11.75;100.00;100886.22;4992621;28;20070;-49
2023/05/10 05:45:41;;;;;;;42.28;20.38;;;;;;;11.57;100.00;100870.16;4992826;28;20070;-47
2023/05/10 05:48:07;;;;;;;38.60;20.50;;;;;;;11.43;100.00;100835.53;4975441;28;20137;-47
2023/05/10 05:50:32;;;;;;;40.72;19.63;;;;;;;11.80;100.00;100892.19;4975592;28;20038;-49
2023/05/10 05:52:57;;;;;;;37.25;20.13;;;;;;;11.72;100.00;100857.31;4992412;28;20027;-47
2023/05/10 05:55:24;;;;;;;32.08;18.52;;;;;;;11.72;100.00;100841.50;4992527;28;20069;-47
2023/05/10 05:57:49;;;;;;;32.20;18.55;;;;;;;11.66;100.00;100825.88;4992629;28;20441;-46
2023/05/10 06:00:15;;;;;;;38.58;20.00;;;;;;;11.78;100.00;100843.06;4975148;28;20069;-45
2023/05/10 06:02:40;;;;;;;30.27;18.13;;;;;;;12.00;100.00;100874.75;4975058;28;20049;-47
2023/05/10 06:05:06;;;;;;;25.65;18.33;;;;;;;12.06;100.00;100867.47;4975218;28;20387;-46
2023/05/10 06:07:31;;;;;;;25.83;18.00;;;;;;;12.21;100.00;100895.06;4992464;28;20034;-45
2023/05/10 06:09:57;;;;;;;26.77;16.83;;;;;;;11.84;100.00;100827.88;4994384;28;20054;-44
2023/05/10 06:12:22;;;;;;;23.52;16.33;;;;;;;11.90;100.00;100832.06;4979020;28;20489;-48
2023/05/10 06:14:47;;;;;;;23.17;16.23;;;;;;;12.45;100.00;100893.25;4996194;28;20038;-51
2023/05/10 06:17:13;;;;;;;23.42;16.38;;;;;;;11.92;100.00;100793.28;4996467;28;20027;-47
2023/05/10 06:19:38;;;;;;;22.27;16.27;;;;;;;12.73;100.00;100900.00;4996272;28;20041;-45
2023/05/10 06:22:03;;;;;;;24.38;14.40;;;;;;;12.90;100.00;100872.94;4996327;28;20034;-46
2023/05/10 06:24:29;;;;;;;19.52;13.85;;;;;;;12.99;100.00;100851.38;4996288;28;20468;-46
2023/05/10 06:26:54;;;;;;;19.75;13.35;;;;;;;13.46;100.00;100881.09;4996686;28;20038;-45
2023/05/10 06:29:19;;;;;;;13.63;11.85;;;;;;;13.72;100.00;100880.81;4996000;28;20034;-47
2023/05/10 06:31:45;;;;;;;14.38;11.13;;;;;;;13.66;100.00;100878.44;4962191;28;20322;-47
2023/05/10 06:34:11;;;;;;;11.90;10.70;;;;;;;13.56;100.00;100845.41;4995909;28;20031;-45
2023/05/10 06:36:36;;;;;;;12.15;9.88;;;;;;;13.50;100.00;100835.97;4995915;28;20082;-45
2023/05/10 06:39:02;;;;;;;14.25;10.40;;;;;;;13.94;100.00;100894.81;4995956;28;20493;-47
2023/05/10 06:41:27;;;;;;;8.55;7.75;;;;;;;13.99;100.00;100895.47;4995778;28;20486;-46
2023/05/10 06:43:53;;;;;;;8.18;7.32;;;;;;;14.06;100.00;100899.56;4995489;28;20070;-46
2023/05/10 06:46:18;;;;;;;8.80;7.47;;;;;;;13.67;100.00;100845.78;4978721;28;20042;-45
2023/05/10 06:48:44;;;;;;;8.38;7.25;;;;;;;14.01;100.00;100896.25;4978118;28;20034;-44
2023/05/10 06:51:09;;;;;;;8.43;7.63;;;;;;;14.03;100.00;100906.78;4995761;28;20034;-48
2023/05/10 06:53:35;;;;;;;7.22;6.53;;;;;;;13.56;100.00;100808.38;4995654;28;20041;-45
2023/05/10 06:56:00;;;;;;;8.82;8.00;;;;;;;14.28;100.00;100906.50;4995286;28;20402;-44
2023/05/10 06:58:25;;;;;;;7.88;7.18;;;;;;;14.24;100.00;100907.59;4995274;28;20062;-44
2023/05/10 07:00:51;;;;;;;7.32;6.63;;;;;;;13.95;100.00;100856.81;4995524;28;20406;-46
2023/05/10 07:03:16;;;;;;;8.27;7.47;;;;;;;13.92;100.00;100869.38;4995143;28;20046;-44
2023/05/10 07:05:42;;;;;;;8.77;7.90;;;;;;;14.17;100.00;100922.88;4978353;28;20165;-46
2023/05/10 07:08:08;;;;;;;9.32;8.05;;;;;;;13.70;100.00;100869.47;4995224;28;20402;-45
2023/05/10 07:10:33;;;;;;;13.05;8.60;;;;;;;13.98;100.00;100940.53;4995075;28;20062;-49
2023/05/10 07:12:59;;;;;;;11.32;9.65;;;;;;;13.59;100.00;100884.94;4995220;28;20030;-44
2023/05/10 07:15:24;;;;;;;10.88;9.20;;;;;;;13.50;100.00;100882.69;4994943;28;20035;-47
2023/05/10 07:17:49;;;;;;;10.73;9.63;;;;;;;13.47;100.00;100872.25;4995303;28;20034;-45
2023/05/10 07:20:15;;;;;;;10.73;9.20;;;;;;;13.75;100.00;100936.25;4994301;28;20069;-44
2023/05/10 07:22:40;;;;;;;10.43;8.43;;;;;;;13.51;100.00;100882.63;4994681;28;20048;-46
2023/05/10 07:25:06;;;;;;;10.27;8.93;;;;;;;13.31;100.00;100852.72;4995190;28;20045;-48
2023/05/10 07:27:32;;;;;;;11.07;9.20;;;;;;;13.81;100.00;100938.63;4994835;28;20042;-49
2023/05/10 07:29:58;;;;;;;11.60;8.65;;;;;;;13.73;100.00;100935.47;4995050;28;20038;-47
2023/05/10 07:32:23;;;;;;;10.18;8.70;;;;;;;13.76;100.00;100943.25;4995009;28;20038;-47
2023/05/10 07:34:49;;;;;;;11.38;8.77;;;;;;;13.81;100.00;100946.56;4994656;28;20085;-46
2023/05/10 07:37:14;;;;;;;9.40;8.05;;;;;;;13.87;100.00;100942.78;4977377;28;20045;-47
2023/05/10 07:39:39;;;;;;;11.43;8.43;;;;;;;13.62;100.00;100895.41;4976973;28;20053;-45
2023/05/10 07:42:05;;;;;;;8.50;7.63;;;;;;;14.01;100.00;100948.31;4994070;28;20034;-44
2023/05/10 07:44:30;;;;;;;7.85;6.90;;;;;;;14.08;100.00;100939.19;4994514;28;20474;-45
2023/05/10 07:46:56;;;;;;;11.23;8.98;;;;;;;13.71;100.00;100895.00;4993309;28;20045;-46
2023/05/10 07:49:23;;;;;;;8.43;7.53;;;;;;;14.05;100.00;100963.13;4990849;28;20097;-45
2023/05/10 07:51:49;;;;;;;7.30;6.15;;;;;;;13.95;100.00;100951.25;4992724;28;20393;-43
2023/05/10 07:54:14;;;;;;;9.48;8.05;;;;;;;13.78;100.00;100914.94;4993225;28;20038;-45
2023/05/10 07:56:44;;;;;;;10.75;7.13;;;;;;;13.62;100.00;100897.19;4992736;28;20049;-44
2023/05/10 07:59:10;;;;;;;10.70;7.80;;;;;;;13.95;100.00;100961.84;4993005;28;20109;-46
2023/05/10 08:01:35;;;;;;;9.73;7.85;;;;;;;13.98;100.00;100951.97;4992649;28;20121;-48
2023/05/10 08:04:01;;;;;;;10.10;7.50;;;;;;;13.98;100.00;100953.78;4993224;28;20042;-51
2023/05/10 08:06:28;;;;;;;10.50;8.90;;;;;;;13.58;100.00;100912.31;4992708;28;20078;-47
2023/05/10 08:08:53;;;;;;;9.88;8.82;;;;;;;13.84;100.00;100957.00;4992813;28;20050;-48
2023/05/10 08:11:20;;;;;;;12.10;8.13;;;;;;;13.79;100.00;100968.72;4993166;28;20036;-46
2023/05/10 08:13:46;;;;;;;12.52;8.98;;;;;;;13.80;100.00;100960.72;4992834;28;20038;-47
2023/05/10 08:16:11;;;;;;;7.50;6.72;;;;;;;14.01;100.00;100965.06;4992658;28;20061;-46
2023/05/10 08:18:37;;;;;;;7.93;6.50;;;;;;;14.17;100.00;100978.47;4992230;28;20648;-48
2023/05/10 08:21:02;;;;;;;5.82;5.05;;;;;;;14.44;100.00;100968.47;4992610;28;20045;-47
2023/05/10 08:23:28;;;;;;;7.55;6.05;;;;;;;14.68;100.00;100972.63;4974615;28;20046;-48
2023/05/10 08:25:53;;;;;;;5.72;5.22;;;;;;;14.63;100.00;100925.13;4992307;28;20042;-46
2023/05/10 08:28:18;;;;;;;5.53;5.03;;;;;;;15.08;100.00;100979.53;4974806;28;20050;-48
2023/05/10 08:30:44;;;;;;;5.78;5.25;;;;;;;15.08;100.00;100984.81;4991901;28;20039;-48
2023/05/10 08:33:09;;;;;;;5.65;5.15;;;;;;;15.11;100.00;100971.41;4992049;28;20034;-44
2023/05/10 08:35:34;;;;;;;5.57;4.78;;;;;;;15.17;100.00;100998.50;4974732;28;20038;-49
2023/05/10 08:38:00;;;;;;;5.00;4.55;;;;;;;15.11;100.00;100977.59;4992421;28;20042;-48
2023/05/10 08:40:26;;;;;;;7.82;5.65;;;;;;;15.11;100.00;100989.97;4992172;28;20105;-44
2023/05/10 08:42:58;;;;;;;5.82;5.30;;;;;;;14.80;100.00;100944.69;4992215;28;20101;-42
2023/05/10 08:45:24;;;;;;;6.38;5.47;;;;;;;15.03;100.00;101003.59;4992279;28;20041;-44
2023/05/10 08:47:50;;;;;;;6.47;4.90;;;;;;;14.96;100.00;101012.78;4974262;28;20046;-46
2023/05/10 08:50:17;;;;;;;5.47;4.97;;;;;;;14.84;100.00;101013.34;4992252;28;20035;-46
2023/05/10 08:52:43;;;;;;;5.53;5.03;;;;;;;14.79;100.00;101012.72;4974596;28;20401;-45
2023/05/10 08:55:09;;;;;;;7.20;5.80;;;;;;;14.41;100.00;100958.00;4992101;28;20477;-45
2023/05/10 08:57:35;;;;;;;7.55;5.68;;;;;;;14.69;100.00;101019.38;4974617;28;20041;-48
2023/05/10 09:00:01;;;;;;;5.47;4.97;;;;;;;14.53;100.00;101011.28;4992216;28;20030;-46
2023/05/10 09:02:26;;;;;;;6.03;5.10;;;;;;;14.51;100.00;101028.16;4991656;28;20052;-45
2023/05/10 09:04:51;;;;;;;5.97;5.07;;;;;;;14.34;100.00;101026.28;4974533;28;20034;-42
2023/05/10 09:07:17;;;;;;;5.45;4.95;;;;;;;14.19;100.00;101028.69;4991738;28;20031;-45
2023/05/10 09:09:43;;;;;;;6.25;5.30;;;;;;;14.02;100.00;101027.66;4991686;28;20062;-44
2023/05/10 09:12:11;;;;;;;6.82;6.13;;;;;;;13.57;100.00;100982.03;4974165;28;20041;-45
2023/05/10 09:14:36;;;;;;;7.03;6.32;;;;;;;13.52;100.00;100976.03;4974649;28;20057;-46
2023/05/10 09:17:02;;;;;;;7.60;6.80;;;;;;;13.90;100.00;101029.97;4958208;28;20026;-43
2023/05/10 09:19:27;;;;;;;10.40;7.88;;;;;;;13.91;100.00;101032.56;4991581;28;20034;-45
2023/05/10 09:21:53;;;;;;;9.05;7.90;;;;;;;14.07;100.00;101032.75;4990862;28;20465;-45
2023/05/10 09:24:18;;;;;;;10.13;8.80;;;;;;;14.33;100.00;101026.34;4990819;28;20121;-44
2023/05/10 09:26:51;;;;;;;9.20;7.75;;;;;;;14.65;100.00;101036.34;4991697;28;20069;-44
2023/05/10 09:29:16;;;;;;;11.00;8.40;;;;;;;15.17;100.00;101030.31;4991791;28;20041;-45
2023/05/10 09:31:46;;;;;;;10.90;8.43;;;;;;;15.53;100.00;101032.09;4991271;28;20038;-42
2023/05/10 09:34:11;;;;;;;9.23;8.10;;;;;;;15.68;100.00;100997.72;4991181;28;20085;-44
2023/05/10 09:36:50;;;;;;;9.38;8.40;;;;;;;16.07;100.00;101000.13;4973598;28;20429;-44
2023/05/10 09:39:15;;;;;;;9.23;8.32;;;;;;;16.85;100.00;101044.63;4991558;28;20540;-43
2023/05/10 09:41:42;;;;;;;10.00;8.20;;;;;;;17.62;100.00;101039.38;4991300;28;20042;-49
2023/05/10 09:44:07;;;;;;;8.13;6.85;;;;;;;17.96;100.00;101010.66;4991608;28;20042;-44
2023/05/10 09:46:35;;;;;;;9.02;7.28;;;;;;;18.57;100.00;101028.25;4995496;28;20047;-44
2023/05/10 09:49:01;;;;;;;6.88;6.25;;;;;;;19.07;100.00;101084.63;4995520;28;20132;-45
2023/05/10 09:51:29;;;;;;;8.35;6.03;;;;;;;19.16;100.00;101085.84;4994910;28;20562;-46
2023/05/10 09:54:13;;;;;;;5.57;4.85;;;;;;;19.01;100.00;101089.47;4978419;28;20425;-47
2023/05/10 09:56:40;;;;;;;5.82;5.22;;;;;;;18.93;100.00;101015.28;4977694;28;20073;-45
2023/05/10 09:59:07;;;;;;;6.82;5.25;;;;;;;19.64;100.00;101101.38;4995230;28;20061;-47
2023/05/10 10:01:33;;;;;;;5.88;5.28;;;;;;;19.74;100.00;101092.75;4994856;28;20047;-46
2023/05/10 10:03:58;;;;;;;7.72;6.05;;;;;;;19.71;100.00;101045.72;4994929;28;20082;-47
2023/05/10 10:06:25;;;;;;;9.48;7.88;;;;;;;19.55;100.00;101102.00;4977674;28;20038;-45
2023/05/10 10:08:51;;;;;;;13.45;9.02;;;;;;;18.43;100.00;101081.53;4994745;28;20064;-46
2023/05/10 10:11:16;;;;;;;14.68;9.88;;;;;;;17.92;100.00;101094.34;4977030;28;20030;-46
2023/05/10 10:13:42;;;;;;;12.68;10.18;;;;;;;17.70;100.00;101098.38;4994956;28;20042;-48
2023/05/10 10:16:08;;;;;;;13.30;10.63;;;;;;;16.84;100.00;101030.47;4995021;28;20121;-47
2023/05/10 10:18:38;;;;;;;15.02;10.98;;;;;;;16.55;100.00;101064.91;4960571;28;20461;-48
2023/05/10 10:21:05;;;;;;;15.93;10.85;;;;;;;16.53;100.00;101037.50;4994894;28;20478;-46
2023/05/10 10:23:30;;;;;;;13.73;10.52;;;;;;;16.72;100.00;101097.59;4977566;28;20134;-48
2023/05/10 10:25:56;;;;;;;17.00;10.65;;;;;;;17.29;100.00;101096.22;4977047;28;20129;-46
2023/05/10 10:28:31;;;;;;;14.48;10.40;;;;;;;17.77;100.00;101102.41;4977034;28;20038;-45
2023/05/10 10:31:01;;;;;;;17.90;10.27;;;;;;;17.33;100.00;100951.44;4976843;28;20205;-45
2023/05/10 10:33:33;;;;;;;10.73;9.20;;;;;;;18.32;100.00;101100.84;4977396;28;20085;-50
2023/05/10 10:36:00;;;;;;;10.45;8.25;;;;;;;17.56;100.00;101056.56;4977129;28;20026;-44
2023/05/10 10:38:36;;;;;;;11.68;8.60;;;;;;;17.69;100.00;101117.94;4976732;28;20061;-48
2023/05/10 10:41:03;;;;;;;9.68;8.60;;;;;;;17.23;100.00;101104.53;4976907;28;20056;-46
2023/05/10 10:43:28;;;;;;;11.68;9.32;;;;;;;16.72;100.00;101052.41;4976736;28;20038;-46
2023/05/10 10:46:17;;;;;;;12.52;10.38;;;;;;;16.48;100.00;101127.25;4994265;28;20125;-45
2023/05/10 10:49:09;;;;;;;15.93;11.45;;;;;;;16.50;100.00;101123.56;4983564;28;20049;-46
2023/05/10 10:51:38;;;;;;;17.77;11.95;;;;;;;16.26;100.00;101064.59;4994216;28;20030;-46
2023/05/10 10:54:10;;;;;;;14.77;10.80;;;;;;;16.44;100.00;101117.72;4976677;28;20030;-44
2023/05/10 10:56:35;;;;;;;14.15;11.00;;;;;;;16.19;100.00;101112.81;4993812;28;20429;-46
2023/05/10 10:59:01;;;;;;;16.67;11.70;;;;;;;16.24;100.00;101127.56;4994401;28;20034;-51
2023/05/10 11:01:33;;;;;;;20.60;12.68;;;;;;;15.86;100.00;101125.13;4993862;28;20516;-45
2023/05/10 11:03:58;;;;;;;17.50;12.30;;;;;;;15.67;100.00;101125.19;4993881;28;20152;-46